createdAt,value
2018-05-08T00:00:18.539Z,21.30
2018-05-08T00:01:18.539Z,21.27
2018-05-08T00:02:18.542Z,21.27
2018-05-08T00:03:18.565Z,21.36
2018-05-08T00:04:18.628Z,21.26
2018-05-08T00:05:18.603Z,21.27
2018-05-08T00:06:18.605Z,21.27
2018-05-08T00:07:18.627Z,21.24
2018-05-08T00:08:18.630Z,21.24
2018-05-08T00:09:18.639Z,21.19
2018-05-08T00:10:18.675Z,21.26
2018-05-08T00:11:18.683Z,21.13
2018-05-08T00:12:18.673Z,21.13
2018-05-08T00:13:18.762Z,21.11
2018-05-08T00:14:18.736Z,21.06
2018-05-08T00:15:18.713Z,21.03
2018-05-08T00:16:18.737Z,21.01
2018-05-08T00:17:18.753Z,20.98
2018-05-08T00:18:18.768Z,21.06
2018-05-08T00:19:18.809Z,21.08
2018-05-08T00:20:18.786Z,21.03
2018-05-08T00:21:18.792Z,20.98
2018-05-08T00:22:18.827Z,21.00
2018-05-08T00:23:18.848Z,21.03
2018-05-08T00:24:18.855Z,21.05
2018-05-08T00:25:18.858Z,21.01
2018-05-08T00:26:18.861Z,20.91
2018-05-08T00:27:18.875Z,20.93
2018-05-08T00:28:18.902Z,20.90
2018-05-08T00:29:18.911Z,20.93
2018-05-08T00:30:18.917Z,21.00
2018-05-08T00:31:18.947Z,20.96
2018-05-08T00:32:18.949Z,20.97
2018-05-08T00:33:19.014Z,20.93
2018-05-08T00:34:18.998Z,21.01
2018-05-08T00:35:18.976Z,21.05
2018-05-08T00:36:18.984Z,21.01
2018-05-08T00:37:19.010Z,20.93
2018-05-08T00:38:19.029Z,20.91
2018-05-08T00:39:19.052Z,20.93
2018-05-08T00:40:19.046Z,20.90
2018-05-08T00:41:19.070Z,20.82
2018-05-08T00:42:19.070Z,20.75
2018-05-08T00:43:19.081Z,20.79
2018-05-08T00:44:19.116Z,20.81
2018-05-08T00:45:19.132Z,20.76
2018-05-08T00:46:19.117Z,20.69
2018-05-08T00:47:19.135Z,20.61
2018-05-08T00:48:19.156Z,20.57
2018-05-08T00:49:19.169Z,20.61
2018-05-08T00:50:19.176Z,20.37
2018-05-08T00:51:19.184Z,20.51
2018-05-08T00:52:19.231Z,20.44
2018-05-08T00:53:19.249Z,20.50
2018-05-08T00:54:19.220Z,20.46
2018-05-08T00:55:19.237Z,20.40
2018-05-08T00:56:19.259Z,20.40
2018-05-08T00:57:19.265Z,20.37
2018-05-08T00:58:19.284Z,20.25
2018-05-08T00:59:19.296Z,20.34
2018-05-08T01:00:19.305Z,20.27
2018-05-08T01:01:19.311Z,20.25
2018-05-08T01:02:19.334Z,20.25
2018-05-08T01:03:19.364Z,20.35
2018-05-08T01:04:19.353Z,20.40
2018-05-08T01:05:19.371Z,20.38
2018-05-08T01:06:19.392Z,20.23
2018-05-08T01:07:19.387Z,20.26
2018-05-08T01:08:19.438Z,20.25
2018-05-08T01:09:19.427Z,20.22
2018-05-08T01:10:19.436Z,20.23
2018-05-08T01:11:19.452Z,20.25
2018-05-08T01:12:19.462Z,20.19
2018-05-08T01:13:19.487Z,20.30
2018-05-08T01:14:19.477Z,20.23
2018-05-08T01:15:19.504Z,20.26
2018-05-08T01:16:19.499Z,20.23
2018-05-08T01:17:19.509Z,20.27
2018-05-08T01:18:19.546Z,20.25
2018-05-08T01:19:19.592Z,20.22
2018-05-08T01:20:19.554Z,20.31
2018-05-08T01:21:19.580Z,20.20
2018-05-08T01:22:19.596Z,20.26
2018-05-08T01:23:19.589Z,20.22
2018-05-08T01:24:19.623Z,20.25
2018-05-08T01:25:19.631Z,20.30
2018-05-08T01:26:19.623Z,20.26
2018-05-08T01:27:19.637Z,20.22
2018-05-08T01:28:19.744Z,20.27
2018-05-08T01:29:19.673Z,20.33
2018-05-08T01:30:19.688Z,20.19
2018-05-08T01:31:19.702Z,20.23
2018-05-08T01:32:19.719Z,20.22
2018-05-08T01:33:19.720Z,20.30
2018-05-08T01:34:19.729Z,20.30
2018-05-08T01:35:19.760Z,20.26
2018-05-08T01:36:19.766Z,20.30
2018-05-08T01:37:19.788Z,20.17
2018-05-08T01:38:19.790Z,20.17
2018-05-08T01:39:19.857Z,20.15
2018-05-08T01:40:19.814Z,20.17
2018-05-08T01:41:19.836Z,20.19
2018-05-08T01:42:19.831Z,20.15
2018-05-08T01:43:19.943Z,20.17
2018-05-08T01:44:19.858Z,20.16
2018-05-08T01:45:19.864Z,20.20
2018-05-08T01:46:19.914Z,20.17
2018-05-08T01:47:19.897Z,20.16
2018-05-08T01:48:19.907Z,20.15
2018-05-08T01:49:19.913Z,20.08
2018-05-08T01:50:19.937Z,20.04
2018-05-08T01:51:20.042Z,19.90
2018-05-08T01:52:19.978Z,19.92
2018-05-08T01:53:19.979Z,19.92
2018-05-08T01:54:19.980Z,19.92
2018-05-08T01:55:20.014Z,19.98
2018-05-08T01:56:20.045Z,19.89
2018-05-08T01:57:20.010Z,19.82
2018-05-08T01:58:20.039Z,19.76
2018-05-08T01:59:20.036Z,19.80
2018-05-08T02:00:20.057Z,19.85
2018-05-08T02:01:20.073Z,19.80
2018-05-08T02:02:20.078Z,19.80
2018-05-08T02:03:20.109Z,19.85
2018-05-08T02:04:20.124Z,19.75
2018-05-08T02:05:20.136Z,19.72
2018-05-08T02:06:20.128Z,19.85
2018-05-08T02:07:20.142Z,19.76
2018-05-08T02:08:20.147Z,19.78
2018-05-08T02:09:20.184Z,19.71
2018-05-08T02:10:20.197Z,19.71
2018-05-08T02:11:20.199Z,19.72
2018-05-08T02:12:20.229Z,19.68
2018-05-08T02:13:20.214Z,19.78
2018-05-08T02:14:20.231Z,19.78
2018-05-08T02:15:20.243Z,19.83
2018-05-08T02:16:20.250Z,19.85
2018-05-08T02:17:20.263Z,19.79
2018-05-08T02:18:20.282Z,19.85
2018-05-08T02:19:20.324Z,19.79
2018-05-08T02:20:20.381Z,19.79
2018-05-08T02:21:20.309Z,19.80
2018-05-08T02:22:20.338Z,19.82
2018-05-08T02:23:20.375Z,19.79
2018-05-08T02:24:20.406Z,19.85
2018-05-08T02:25:20.380Z,19.79
2018-05-08T02:26:20.432Z,19.78
2018-05-08T02:27:20.406Z,19.71
2018-05-08T02:28:20.417Z,19.65
2018-05-08T02:29:20.427Z,19.61
2018-05-08T02:30:20.429Z,19.58
2018-05-08T02:31:20.460Z,19.49
2018-05-08T02:32:20.468Z,19.49
2018-05-08T02:33:20.450Z,19.52
2018-05-08T02:34:20.595Z,19.43
2018-05-08T02:35:20.496Z,19.53
2018-05-08T02:36:20.500Z,19.55
2018-05-08T02:37:20.517Z,19.58
2018-05-08T02:38:20.568Z,19.55
2018-05-08T02:39:20.618Z,19.47
2018-05-08T02:40:20.845Z,19.45
2018-05-08T02:41:20.570Z,19.39
2018-05-08T02:42:20.571Z,19.40
2018-05-08T02:43:20.588Z,19.35
2018-05-08T02:44:20.630Z,19.34
2018-05-08T02:45:20.647Z,19.30
2018-05-08T02:46:20.609Z,19.35
2018-05-08T02:47:20.674Z,19.40
2018-05-08T02:48:20.653Z,19.31
2018-05-08T02:49:20.669Z,19.35
2018-05-08T02:50:20.663Z,19.40
2018-05-08T02:51:20.673Z,19.35
2018-05-08T02:52:20.752Z,19.39
2018-05-08T02:53:20.714Z,19.35
2018-05-08T02:54:20.733Z,19.23
2018-05-08T02:55:20.796Z,19.20
2018-05-08T02:56:20.741Z,19.24
2018-05-08T02:57:20.758Z,19.27
2018-05-08T02:58:20.769Z,19.24
2018-05-08T02:59:20.794Z,19.25
2018-05-08T03:00:20.838Z,19.17
2018-05-08T03:01:20.827Z,19.20
2018-05-08T03:02:20.838Z,19.23
2018-05-08T03:03:20.908Z,19.17
2018-05-08T03:04:20.829Z,19.28
2018-05-08T03:05:20.861Z,19.25
2018-05-08T03:06:20.919Z,19.17
2018-05-08T03:07:20.872Z,19.32
2018-05-08T03:08:20.949Z,19.24
2018-05-08T03:09:20.915Z,19.23
2018-05-08T03:10:20.906Z,19.13
2018-05-08T03:11:20.910Z,19.15
2018-05-08T03:12:20.952Z,19.02
2018-05-08T03:13:20.936Z,19.17
2018-05-08T03:14:20.990Z,19.20
2018-05-08T03:15:20.953Z,19.05
2018-05-08T03:16:20.987Z,19.05
2018-05-08T03:17:20.980Z,18.93
2018-05-08T03:18:21.023Z,19.05
2018-05-08T03:19:21.010Z,19.05
2018-05-08T03:20:21.024Z,19.12
2018-05-08T03:21:21.065Z,19.02
2018-05-08T03:22:21.068Z,19.09
2018-05-08T03:23:21.058Z,19.01
2018-05-08T03:24:21.080Z,19.01
2018-05-08T03:25:21.101Z,19.07
2018-05-08T03:26:21.088Z,19.06
2018-05-08T03:27:21.111Z,19.10
2018-05-08T03:28:21.113Z,19.01
2018-05-08T03:29:21.152Z,19.09
2018-05-08T03:30:21.167Z,19.01
2018-05-08T03:31:21.152Z,18.99
2018-05-08T03:32:21.166Z,19.05
2018-05-08T03:33:21.210Z,19.06
2018-05-08T03:34:21.194Z,18.99
2018-05-08T03:35:21.239Z,18.99
2018-05-08T03:36:21.204Z,19.05
2018-05-08T03:37:21.209Z,19.06
2018-05-08T03:38:21.243Z,19.06
2018-05-08T03:39:21.252Z,19.07
2018-05-08T03:40:21.268Z,18.93
2018-05-08T03:41:21.263Z,18.90
2018-05-08T03:42:21.270Z,18.86
2018-05-08T03:43:21.287Z,18.82
2018-05-08T03:44:21.336Z,18.90
2018-05-08T03:45:21.338Z,18.94
2018-05-08T03:46:21.315Z,18.89
2018-05-08T03:47:21.387Z,18.99
2018-05-08T03:48:21.362Z,18.93
2018-05-08T03:49:21.383Z,18.96
2018-05-08T03:50:21.498Z,18.90
2018-05-08T03:51:21.376Z,18.99
2018-05-08T03:52:21.397Z,18.89
2018-05-08T03:53:21.420Z,18.91
2018-05-08T03:54:21.427Z,18.87
2018-05-08T03:55:21.427Z,18.72
2018-05-08T03:56:21.435Z,18.71
2018-05-08T03:57:21.529Z,18.71
2018-05-08T03:58:21.464Z,18.72
2018-05-08T03:59:21.508Z,18.68
2018-05-08T04:00:21.492Z,18.68
2018-05-08T04:01:21.502Z,18.75
2018-05-08T04:02:21.548Z,18.75
2018-05-08T04:03:21.519Z,18.89
2018-05-08T04:04:21.550Z,18.79
2018-05-08T04:05:21.547Z,18.94
2018-05-08T04:06:21.599Z,18.93
2018-05-08T04:07:21.593Z,18.86
2018-05-08T04:08:21.637Z,18.90
2018-05-08T04:09:21.595Z,18.89
2018-05-08T04:10:21.605Z,18.83
2018-05-08T04:11:21.644Z,18.76
2018-05-08T04:12:21.647Z,18.66
2018-05-08T04:13:21.652Z,18.76
2018-05-08T04:14:21.647Z,18.66
2018-05-08T04:15:21.678Z,18.65
2018-05-08T04:16:21.665Z,18.69
2018-05-08T04:17:21.732Z,18.68
2018-05-08T04:18:21.687Z,18.65
2018-05-08T04:19:21.698Z,18.59
2018-05-08T04:20:21.716Z,18.60
2018-05-08T04:21:21.744Z,18.66
2018-05-08T04:22:21.753Z,18.69
2018-05-08T04:23:21.754Z,18.71
2018-05-08T04:24:21.771Z,18.78
2018-05-08T04:25:21.770Z,18.69
2018-05-08T04:26:21.788Z,18.83
2018-05-08T04:27:21.815Z,18.82
2018-05-08T04:28:21.823Z,18.79
2018-05-08T04:29:21.870Z,18.83
2018-05-08T04:30:21.862Z,18.84
2018-05-08T04:31:21.838Z,18.87
2018-05-08T04:32:21.837Z,18.90
2018-05-08T04:33:21.847Z,18.78
2018-05-08T04:34:21.953Z,18.82
2018-05-08T04:35:21.905Z,18.83
2018-05-08T04:36:21.923Z,18.75
2018-05-08T04:37:21.923Z,18.83
2018-05-08T04:38:21.921Z,18.94
2018-05-08T04:39:21.954Z,18.79
2018-05-08T04:40:21.944Z,18.90
2018-05-08T04:41:21.965Z,18.86
2018-05-08T04:42:21.981Z,18.91
2018-05-08T04:43:21.966Z,18.89
2018-05-08T04:44:21.977Z,18.90
2018-05-08T04:45:22.004Z,19.02
2018-05-08T04:46:22.014Z,18.99
2018-05-08T04:47:22.044Z,18.99
2018-05-08T04:48:22.049Z,19.06
2018-05-08T04:49:22.033Z,18.97
2018-05-08T04:50:22.068Z,19.07
2018-05-08T04:51:22.089Z,19.07
2018-05-08T04:52:22.109Z,19.06
2018-05-08T04:53:22.088Z,19.07
2018-05-08T04:54:22.090Z,19.02
2018-05-08T04:55:22.108Z,19.01
2018-05-08T04:56:22.193Z,19.05
2018-05-08T04:57:22.155Z,19.12
2018-05-08T04:58:22.155Z,19.16
2018-05-08T04:59:22.195Z,19.27
2018-05-08T05:00:22.211Z,19.16
2018-05-08T05:01:22.171Z,19.12
2018-05-08T05:02:22.191Z,19.10
2018-05-08T05:03:22.193Z,19.16
2018-05-08T05:04:22.230Z,19.09
2018-05-08T05:05:22.245Z,19.12
2018-05-08T05:06:22.257Z,19.12
2018-05-08T05:07:22.249Z,19.20
2018-05-08T05:08:22.257Z,19.24
2018-05-08T05:09:22.276Z,19.10
2018-05-08T05:10:22.280Z,19.16
2018-05-08T05:11:22.325Z,19.15
2018-05-08T05:12:22.349Z,19.15
2018-05-08T05:13:22.333Z,19.23
2018-05-08T05:14:22.335Z,19.15
2018-05-08T05:15:22.341Z,19.23
2018-05-08T05:16:22.358Z,19.28
2018-05-08T05:17:22.398Z,19.27
2018-05-08T05:18:22.419Z,19.21
2018-05-08T05:19:22.377Z,19.34
2018-05-08T05:20:22.422Z,19.28
2018-05-08T05:21:22.420Z,19.38
2018-05-08T05:22:22.425Z,19.40
2018-05-08T05:23:22.427Z,19.38
2018-05-08T05:24:22.478Z,19.46
2018-05-08T05:25:22.449Z,19.46
2018-05-08T05:26:22.480Z,19.55
2018-05-08T05:27:22.476Z,19.47
2018-05-08T05:28:22.497Z,19.58
2018-05-08T05:29:22.494Z,19.50
2018-05-08T05:30:22.509Z,19.57
2018-05-08T05:31:22.517Z,19.61
2018-05-08T05:32:22.525Z,19.64
2018-05-08T05:33:22.537Z,19.65
2018-05-08T05:34:22.577Z,19.64
2018-05-08T05:35:22.616Z,19.68
2018-05-08T05:36:22.574Z,19.76
2018-05-08T05:37:22.596Z,19.71
2018-05-08T05:38:22.655Z,19.68
2018-05-08T05:39:22.613Z,19.78
2018-05-08T05:40:22.624Z,19.79
2018-05-08T05:41:22.629Z,19.82
2018-05-08T05:42:22.644Z,19.76
2018-05-08T05:43:22.666Z,19.79
2018-05-08T05:44:22.687Z,19.78
2018-05-08T05:45:22.690Z,19.75
2018-05-08T05:46:22.698Z,19.79
2018-05-08T05:47:22.717Z,19.80
2018-05-08T05:48:22.782Z,19.82
2018-05-08T05:49:22.731Z,19.80
2018-05-08T05:50:22.741Z,19.82
2018-05-08T05:51:22.771Z,19.86
2018-05-08T05:52:22.788Z,19.92
2018-05-08T05:53:22.796Z,19.82
2018-05-08T05:54:22.804Z,19.90
2018-05-08T05:55:22.842Z,19.92
2018-05-08T05:56:22.811Z,19.90
2018-05-08T05:57:22.857Z,19.95
2018-05-08T05:58:22.850Z,19.90
2018-05-08T05:59:22.856Z,19.89
2018-05-08T06:00:22.883Z,19.87
2018-05-08T06:01:22.869Z,20.00
2018-05-08T06:02:22.883Z,20.02
2018-05-08T06:03:22.889Z,20.04
2018-05-08T06:04:22.899Z,20.07
2018-05-08T06:05:22.967Z,20.10
2018-05-08T06:06:23.005Z,20.10
2018-05-08T06:07:22.950Z,20.01
2018-05-08T06:08:22.972Z,20.07
2018-05-08T06:09:22.962Z,20.15
2018-05-08T06:10:23.011Z,20.20
2018-05-08T06:11:23.020Z,20.25
2018-05-08T06:12:23.003Z,20.15
2018-05-08T06:13:23.029Z,20.15
2018-05-08T06:14:23.032Z,20.19
2018-05-08T06:15:23.047Z,20.19
2018-05-08T06:16:23.062Z,20.19
2018-05-08T06:17:23.056Z,20.33
2018-05-08T06:18:23.075Z,20.30
2018-05-08T06:19:23.089Z,20.22
2018-05-08T06:20:23.160Z,20.30
2018-05-08T06:21:23.123Z,20.31
2018-05-08T06:22:23.123Z,20.34
2018-05-08T06:23:23.134Z,20.35
2018-05-08T06:24:23.157Z,20.35
2018-05-08T06:25:23.161Z,20.38
2018-05-08T06:26:23.160Z,20.40
2018-05-08T06:27:23.187Z,20.35
2018-05-08T06:28:23.197Z,20.41
2018-05-08T06:29:23.206Z,20.37
2018-05-08T06:30:23.213Z,20.38
2018-05-08T06:31:23.258Z,20.41
2018-05-08T06:32:23.255Z,20.42
2018-05-08T06:33:23.259Z,20.44
2018-05-08T06:34:23.277Z,20.53
2018-05-08T06:35:23.290Z,20.56
2018-05-08T06:36:23.297Z,20.56
2018-05-08T06:37:23.301Z,20.57
2018-05-08T06:38:23.310Z,20.58
2018-05-08T06:39:23.399Z,20.58
2018-05-08T06:40:23.345Z,20.63
2018-05-08T06:41:23.355Z,20.63
2018-05-08T06:42:23.358Z,20.69
2018-05-08T06:43:23.371Z,20.71
2018-05-08T06:44:23.557Z,20.63
2018-05-08T06:45:23.407Z,20.69
2018-05-08T06:46:23.451Z,20.72
2018-05-08T06:47:23.451Z,20.78
2018-05-08T06:48:23.440Z,20.71
2018-05-08T06:49:23.447Z,20.87
2018-05-08T06:50:23.475Z,20.85
2018-05-08T06:51:23.457Z,20.83
2018-05-08T06:52:23.482Z,20.87
2018-05-08T06:53:23.518Z,20.97
2018-05-08T06:54:23.510Z,20.97
2018-05-08T06:55:23.510Z,20.91
2018-05-08T06:56:23.537Z,20.90
2018-05-08T06:57:23.543Z,20.93
2018-05-08T06:58:23.563Z,20.93
2018-05-08T06:59:23.560Z,20.98
2018-05-08T07:00:23.576Z,21.00
2018-05-08T07:01:23.615Z,21.00
2018-05-08T07:02:23.601Z,21.05
2018-05-08T07:03:23.617Z,21.18
2018-05-08T07:04:23.634Z,21.11
2018-05-08T07:05:23.649Z,21.12
2018-05-08T07:06:23.697Z,21.12
2018-05-08T07:07:23.689Z,21.24
2018-05-08T07:08:23.695Z,21.19
2018-05-08T07:09:23.714Z,21.31
2018-05-08T07:10:23.716Z,21.31
2018-05-08T07:11:23.725Z,21.28
2018-05-08T07:12:23.740Z,21.30
2018-05-08T07:13:23.751Z,21.36
2018-05-08T07:14:23.769Z,21.40
2018-05-08T07:15:23.774Z,21.43
2018-05-08T07:16:23.795Z,21.43
2018-05-08T07:17:23.795Z,21.37
2018-05-08T07:18:23.821Z,21.48
2018-05-08T07:19:23.906Z,21.48
2018-05-08T07:20:23.859Z,21.51
2018-05-08T07:21:23.909Z,21.51
2018-05-08T07:22:23.871Z,21.53
2018-05-08T07:23:23.880Z,21.53
2018-05-08T07:24:23.883Z,21.52
2018-05-08T07:25:23.925Z,21.51
2018-05-08T07:26:23.896Z,21.64
2018-05-08T07:27:23.948Z,21.63
2018-05-08T07:28:23.946Z,21.66
2018-05-08T07:29:23.957Z,21.66
2018-05-08T07:30:23.952Z,21.71
2018-05-08T07:31:24.007Z,21.73
2018-05-08T07:32:24.046Z,21.71
2018-05-08T07:33:23.992Z,21.77
2018-05-08T07:34:24.025Z,21.75
2018-05-08T07:35:24.011Z,21.74
2018-05-08T07:36:24.033Z,21.85
2018-05-08T07:37:24.036Z,21.85
2018-05-08T07:38:24.122Z,21.93
2018-05-08T07:39:24.091Z,21.99
2018-05-08T07:40:24.098Z,21.89
2018-05-08T07:41:24.107Z,21.83
2018-05-08T07:42:24.108Z,21.98
2018-05-08T07:43:24.147Z,21.96
2018-05-08T07:44:24.186Z,21.98
2018-05-08T07:45:24.175Z,22.11
2018-05-08T07:46:24.193Z,22.15
2018-05-08T07:47:24.170Z,22.12
2018-05-08T07:48:24.183Z,22.26
2018-05-08T07:49:24.210Z,22.21
2018-05-08T07:50:24.202Z,22.26
2018-05-08T07:51:24.232Z,22.24
2018-05-08T07:52:24.237Z,22.27
2018-05-08T07:53:24.246Z,22.26
2018-05-08T07:54:24.249Z,22.21
2018-05-08T07:55:24.293Z,22.27
2018-05-08T07:56:24.311Z,22.23
2018-05-08T07:57:24.347Z,22.31
2018-05-08T07:58:24.353Z,22.31
2018-05-08T07:59:24.373Z,22.35
2018-05-08T08:00:24.371Z,22.44
2018-05-08T08:01:24.386Z,22.41
2018-05-08T08:02:24.401Z,22.51
2018-05-08T08:03:24.437Z,22.45
2018-05-08T08:04:24.404Z,22.49
2018-05-08T08:05:24.405Z,22.44
2018-05-08T08:06:24.428Z,22.56
2018-05-08T08:07:24.493Z,22.56
2018-05-08T08:08:24.498Z,22.48
2018-05-08T08:09:24.462Z,22.56
2018-05-08T08:10:24.479Z,22.63
2018-05-08T08:11:24.481Z,22.59
2018-05-08T08:12:24.561Z,22.64
2018-05-08T08:13:24.502Z,22.69
2018-05-08T08:14:24.513Z,22.67
2018-05-08T08:16:24.584Z,22.70
2018-05-08T08:17:24.591Z,22.72
2018-05-08T08:18:24.708Z,22.76
2018-05-08T08:19:24.600Z,22.70
2018-05-08T08:21:24.617Z,22.78
2018-05-08T08:22:24.645Z,22.79
2018-05-08T08:23:24.636Z,22.96
2018-05-08T08:24:24.643Z,22.85
2018-05-08T08:25:24.671Z,22.75
2018-05-08T08:26:24.680Z,22.86
2018-05-08T08:28:24.712Z,22.97
2018-05-08T08:29:24.716Z,23.03
2018-05-08T08:30:24.809Z,22.96
2018-05-08T08:31:24.877Z,23.07
2018-05-08T08:32:24.845Z,23.14
2018-05-08T08:33:24.919Z,23.11
2018-05-08T08:35:24.828Z,23.04
2018-05-08T08:36:24.898Z,23.06
2018-05-08T08:37:24.923Z,23.12
2018-05-08T08:38:24.913Z,23.04
2018-05-08T08:39:24.939Z,23.18
2018-05-08T08:40:24.905Z,23.22
2018-05-08T08:41:24.982Z,23.21
2018-05-08T08:42:24.907Z,23.37
2018-05-08T08:43:24.955Z,23.42
2018-05-08T08:44:24.909Z,23.38
2018-05-08T08:45:24.926Z,23.37
2018-05-08T08:46:25.009Z,23.32
2018-05-08T08:48:24.978Z,23.41
2018-05-08T08:49:25.001Z,23.38
2018-05-08T08:50:25.032Z,23.39
2018-05-08T08:51:25.050Z,23.42
2018-05-08T08:52:25.054Z,23.37
2018-05-08T08:53:25.065Z,23.38
2018-05-08T08:54:25.058Z,23.44
2018-05-08T08:55:25.077Z,23.52
2018-05-08T08:56:25.072Z,23.56
2018-05-08T08:57:25.107Z,23.52
2018-05-08T08:58:25.113Z,23.49
2018-05-08T09:00:25.129Z,23.59
2018-05-08T09:01:25.159Z,23.64
2018-05-08T09:02:25.166Z,23.62
2018-05-08T09:03:25.191Z,23.67
2018-05-08T09:04:25.198Z,23.68
2018-05-08T09:05:25.246Z,23.71
2018-05-08T09:06:25.284Z,23.77
2018-05-08T09:07:25.259Z,23.78
2018-05-08T09:08:25.282Z,23.79
2018-05-08T09:09:25.263Z,23.78
2018-05-08T09:10:25.277Z,23.86
2018-05-08T09:11:25.289Z,23.81
2018-05-08T09:12:25.289Z,23.87
2018-05-08T09:13:25.482Z,23.87
2018-05-08T09:14:25.325Z,23.92
2018-05-08T09:15:25.375Z,23.94
2018-05-08T09:16:25.362Z,23.89
2018-05-08T09:17:25.495Z,23.92
2018-05-08T09:18:25.398Z,23.93
2018-05-08T09:19:25.448Z,23.94
2018-05-08T09:20:25.440Z,24.04
2018-05-08T09:21:25.423Z,24.08
2018-05-08T09:22:25.432Z,24.06
2018-05-08T09:23:25.450Z,24.16
2018-05-08T09:24:25.505Z,24.08
2018-05-08T09:25:25.489Z,24.16
2018-05-08T09:26:25.497Z,24.18
2018-05-08T09:27:25.564Z,24.14
2018-05-08T09:28:25.588Z,24.15
2018-05-08T09:29:25.575Z,24.26
2018-05-08T09:30:25.596Z,24.26
2018-05-08T09:31:25.557Z,24.21
2018-05-08T09:32:25.574Z,24.29
2018-05-08T09:33:25.601Z,24.31
2018-05-08T09:34:25.612Z,24.44
2018-05-08T09:35:25.628Z,24.45
2018-05-08T09:36:25.644Z,24.42
2018-05-08T09:37:25.646Z,24.39
2018-05-08T09:38:25.663Z,24.45
2018-05-08T09:39:25.823Z,24.53
2018-05-08T09:40:25.698Z,24.49
2018-05-08T09:41:25.733Z,24.61
2018-05-08T09:42:25.723Z,24.60
2018-05-08T09:43:25.789Z,24.55
2018-05-08T09:44:25.757Z,24.55
2018-05-08T09:45:25.763Z,24.63
2018-05-08T09:46:25.776Z,24.66
2018-05-08T09:47:25.802Z,24.77
2018-05-08T09:48:25.824Z,24.71
2018-05-08T09:49:25.827Z,24.64
2018-05-08T09:50:25.830Z,24.66
2018-05-08T09:51:25.840Z,24.66
2018-05-08T09:52:25.917Z,24.74
2018-05-08T09:53:25.886Z,24.74
2018-05-08T09:54:25.899Z,24.82
2018-05-08T09:55:25.918Z,24.80
2018-05-08T09:56:25.933Z,24.82
2018-05-08T09:57:25.952Z,24.93
2018-05-08T09:58:25.952Z,24.80
2018-05-08T09:59:25.959Z,24.86
2018-05-08T10:00:25.973Z,24.86
2018-05-08T10:01:26.021Z,24.92
2018-05-08T10:02:26.026Z,24.92
2018-05-08T10:03:26.028Z,24.89
2018-05-08T10:04:26.049Z,24.90
2018-05-08T10:05:26.134Z,24.90
2018-05-08T10:06:26.079Z,24.97
2018-05-08T10:07:26.102Z,24.94
2018-05-08T10:08:26.108Z,24.93
2018-05-08T10:09:26.141Z,25.08
2018-05-08T10:10:26.121Z,25.02
2018-05-08T10:11:26.175Z,25.08
2018-05-08T10:12:26.194Z,25.07
2018-05-08T10:13:26.155Z,25.05
2018-05-08T10:14:26.218Z,25.04
2018-05-08T10:15:26.194Z,25.20
2018-05-08T10:16:26.210Z,25.08
2018-05-08T10:17:26.231Z,25.16
2018-05-08T10:18:26.261Z,25.26
2018-05-08T10:19:26.268Z,25.19
2018-05-08T10:20:26.302Z,25.23
2018-05-08T10:21:26.318Z,25.20
2018-05-08T10:22:26.289Z,25.41
2018-05-08T10:23:26.316Z,25.36
2018-05-08T10:24:26.338Z,25.35
2018-05-08T10:25:26.348Z,25.46
2018-05-08T10:26:26.374Z,25.44
2018-05-08T10:27:26.382Z,25.53
2018-05-08T10:28:26.398Z,25.51
2018-05-08T10:29:26.416Z,25.53
2018-05-08T10:30:26.419Z,25.59
2018-05-08T10:31:26.429Z,25.63
2018-05-08T10:32:26.438Z,25.71
2018-05-08T10:33:26.454Z,25.75
2018-05-08T10:34:26.492Z,25.85
2018-05-08T10:35:26.506Z,25.81
2018-05-08T10:36:26.515Z,25.79
2018-05-08T10:37:26.511Z,25.89
2018-05-08T10:38:26.582Z,25.93
2018-05-08T10:39:26.547Z,26.08
2018-05-08T10:40:26.575Z,26.19
2018-05-08T10:41:26.606Z,26.24
2018-05-08T10:42:26.606Z,26.20
2018-05-08T10:43:27.356Z,26.31
2018-05-08T10:44:26.629Z,26.35
2018-05-08T10:45:26.629Z,26.42
2018-05-08T10:46:26.701Z,26.46
2018-05-08T10:47:26.683Z,26.57
2018-05-08T10:48:26.692Z,26.59
2018-05-08T10:49:26.693Z,26.56
2018-05-08T10:50:26.703Z,26.69
2018-05-08T10:51:26.737Z,26.76
2018-05-08T10:52:26.751Z,26.83
2018-05-08T10:53:26.753Z,26.88
2018-05-08T10:54:26.762Z,26.83
2018-05-08T10:55:26.795Z,26.91
2018-05-08T10:56:26.811Z,26.87
2018-05-08T10:57:26.843Z,26.93
2018-05-08T10:58:26.862Z,26.94
2018-05-08T10:59:26.874Z,27.09
2018-05-08T11:00:26.892Z,27.09
2018-05-08T11:01:26.885Z,27.16
2018-05-08T11:02:26.899Z,27.31
2018-05-08T11:03:26.913Z,27.49
2018-05-08T11:04:26.917Z,27.93
2018-05-08T11:05:26.976Z,28.28
2018-05-08T11:06:26.977Z,28.69
2018-05-08T11:07:27.039Z,28.97
2018-05-08T11:08:27.024Z,29.29
2018-05-08T11:09:27.053Z,29.58
2018-05-08T11:10:27.053Z,29.86
2018-05-08T11:11:27.157Z,30.18
2018-05-08T11:12:27.108Z,30.28
2018-05-08T11:13:27.083Z,30.61
2018-05-08T11:14:27.118Z,30.63
2018-05-08T11:15:27.137Z,30.90
2018-05-08T11:16:27.152Z,30.98
2018-05-08T11:17:27.197Z,31.09
2018-05-08T11:18:27.199Z,31.32
2018-05-08T11:19:27.210Z,31.69
2018-05-08T11:20:27.228Z,31.72
2018-05-08T11:21:27.244Z,31.78
2018-05-08T11:22:27.289Z,31.74
2018-05-08T11:23:27.306Z,31.78
2018-05-08T11:24:27.353Z,31.88
2018-05-08T11:25:27.344Z,31.87
2018-05-08T11:26:27.441Z,31.88
2018-05-08T11:27:27.379Z,31.87
2018-05-08T11:28:27.397Z,31.78
2018-05-08T11:29:27.429Z,31.79
2018-05-08T11:30:27.486Z,31.95
2018-05-08T11:31:27.497Z,32.27
2018-05-08T11:32:27.486Z,32.29
2018-05-08T11:33:27.567Z,32.39
2018-05-08T11:34:27.580Z,32.47
2018-05-08T11:35:27.576Z,32.47
2018-05-08T11:36:27.591Z,32.66
2018-05-08T11:37:27.646Z,32.65
2018-05-08T11:38:27.693Z,32.61
2018-05-08T11:39:27.670Z,32.50
2018-05-08T11:40:27.699Z,32.58
2018-05-08T11:41:27.704Z,32.49
2018-05-08T11:42:27.779Z,32.47
2018-05-08T11:43:27.800Z,32.62
2018-05-08T11:44:27.823Z,32.69
2018-05-08T11:45:27.835Z,32.68
2018-05-08T11:46:27.842Z,32.84
2018-05-08T11:47:27.876Z,32.78
2018-05-08T11:48:27.925Z,32.90
2018-05-08T11:49:27.930Z,32.87
2018-05-08T11:50:27.985Z,33.09
2018-05-08T11:51:28.033Z,33.14
2018-05-08T11:52:28.024Z,33.17
2018-05-08T11:53:28.050Z,33.53
2018-05-08T11:54:28.071Z,33.72
2018-05-08T11:55:28.106Z,33.82
2018-05-08T11:56:28.152Z,34.19
2018-05-08T11:57:28.157Z,34.43
2018-05-08T11:58:28.196Z,34.42
2018-05-08T11:59:28.244Z,34.73
2018-05-08T12:00:28.279Z,34.86
2018-05-08T12:01:28.293Z,35.00
2018-05-08T12:02:28.335Z,35.18
2018-05-08T12:03:28.362Z,35.47
2018-05-08T12:04:28.429Z,35.58
2018-05-08T12:05:28.437Z,35.49
2018-05-08T12:06:28.445Z,35.32
2018-05-08T12:07:28.498Z,35.34
2018-05-08T12:08:28.520Z,35.36
2018-05-08T12:09:28.556Z,35.34
2018-05-08T12:10:28.630Z,35.32
2018-05-08T12:11:28.624Z,35.43
2018-05-08T12:12:28.651Z,35.39
2018-05-08T12:13:28.676Z,35.18
2018-05-08T12:14:28.809Z,35.25
2018-05-08T12:15:28.761Z,35.56
2018-05-08T12:16:28.803Z,35.61
2018-05-08T12:17:28.821Z,35.69
2018-05-08T12:18:28.889Z,35.55
2018-05-08T12:19:28.898Z,35.77
2018-05-08T12:20:28.938Z,35.59
2018-05-08T12:21:28.973Z,35.58
2018-05-08T12:22:29.049Z,35.74
2018-05-08T12:23:29.075Z,35.68
2018-05-08T12:24:29.071Z,35.85
2018-05-08T12:25:29.151Z,36.22
2018-05-08T12:26:29.141Z,36.30
2018-05-08T12:27:29.191Z,36.16
2018-05-08T12:28:29.216Z,36.00
2018-05-08T12:29:29.270Z,35.93
2018-05-08T12:30:29.321Z,36.15
2018-05-08T12:31:29.576Z,36.52
2018-05-08T12:32:29.350Z,36.59
2018-05-08T12:33:29.391Z,36.60
2018-05-08T12:34:29.447Z,36.43
2018-05-08T12:35:29.572Z,36.72
2018-05-08T12:36:29.539Z,36.62
2018-05-08T12:37:29.597Z,36.72
2018-05-08T12:38:29.583Z,36.97
2018-05-08T12:39:29.605Z,37.04
2018-05-08T12:40:29.647Z,37.31
2018-05-08T12:41:29.714Z,37.31
2018-05-08T12:42:29.773Z,37.34
2018-05-08T12:43:29.795Z,37.46
2018-05-08T12:44:29.818Z,37.58
2018-05-08T12:45:29.888Z,37.46
2018-05-08T12:46:29.896Z,37.25
2018-05-08T12:47:29.949Z,37.23
2018-05-08T12:48:29.962Z,37.04
2018-05-08T12:49:29.972Z,37.31
2018-05-08T12:50:30.025Z,37.30
2018-05-08T12:51:30.061Z,37.24
2018-05-08T12:52:30.103Z,37.23
2018-05-08T12:53:30.133Z,37.49
2018-05-08T12:54:30.217Z,37.78
2018-05-08T12:55:30.209Z,38.00
2018-05-08T12:56:30.418Z,38.02
2018-05-08T12:57:30.335Z,38.12
2018-05-08T12:58:30.336Z,38.06